createdAt,value
2017-09-26T00:01:32.968Z,85.20
2017-09-26T00:04:00.614Z,84.80
2017-09-26T00:06:28.295Z,84.60
2017-09-26T00:08:56.520Z,83.70
2017-09-26T00:11:24.171Z,83.80
2017-09-26T00:13:51.867Z,84.20
2017-09-26T00:16:19.557Z,84.10
2017-09-26T00:18:47.304Z,84.20
2017-09-26T00:21:15.052Z,84.20
2017-09-26T00:23:42.798Z,83.90
2017-09-26T00:26:10.452Z,83.80
2017-09-26T00:28:38.190Z,84.00
2017-09-26T00:31:05.863Z,83.90
2017-09-26T00:33:33.984Z,83.80
2017-09-26T00:36:08.805Z,83.80
2017-09-26T00:38:36.527Z,84.10
2017-09-26T00:41:04.402Z,84.20
2017-09-26T00:43:32.163Z,84.40
2017-09-26T00:46:00.305Z,84.40
2017-09-26T00:48:28.052Z,84.50
2017-09-26T00:50:56.214Z,84.50
2017-09-26T00:53:23.959Z,84.50
2017-09-26T00:55:51.626Z,84.60
2017-09-26T00:58:19.807Z,84.90
2017-09-26T01:00:47.610Z,85.00
2017-09-26T01:03:35.220Z,85.00
2017-09-26T01:06:05.629Z,85.20
2017-09-26T01:08:33.327Z,85.40
2017-09-26T01:11:01.116Z,85.20
2017-09-26T01:13:28.870Z,85.30
2017-09-26T01:15:56.566Z,85.00
2017-09-26T01:18:24.296Z,85.00
2017-09-26T01:20:52.524Z,84.10
2017-09-26T01:23:20.375Z,84.10
2017-09-26T01:25:48.071Z,83.70
2017-09-26T01:28:15.766Z,83.50
2017-09-26T01:30:43.422Z,83.80
2017-09-26T01:33:11.157Z,83.70
2017-09-26T01:35:38.811Z,83.20
2017-09-26T01:38:06.550Z,83.30
2017-09-26T01:41:00.816Z,83.30
2017-09-26T01:43:28.563Z,83.70
2017-09-26T01:45:56.314Z,84.00
2017-09-26T01:48:24.165Z,83.90
2017-09-26T01:50:51.868Z,84.30
2017-09-26T01:53:19.573Z,84.50
2017-09-26T01:55:47.723Z,84.60
2017-09-26T01:58:19.247Z,84.60
2017-09-26T02:00:47.096Z,84.50
2017-09-26T02:03:14.946Z,84.90
2017-09-26T02:05:42.693Z,84.90
2017-09-26T02:08:10.406Z,84.70
2017-09-26T02:10:38.085Z,85.10
2017-09-26T02:13:05.783Z,85.30
2017-09-26T02:15:33.579Z,84.80
2017-09-26T02:18:01.326Z,84.00
2017-09-26T02:20:29.073Z,83.30
2017-09-26T02:22:56.767Z,83.40
2017-09-26T02:25:24.468Z,83.60
2017-09-26T02:27:52.215Z,84.10
2017-09-26T02:30:20.067Z,84.80
2017-09-26T02:32:47.813Z,84.70
2017-09-26T02:35:15.560Z,85.20
2017-09-26T02:37:43.409Z,85.30
2017-09-26T02:40:11.156Z,85.40
2017-09-26T02:42:38.811Z,85.80
2017-09-26T02:45:06.549Z,86.00
2017-09-26T02:47:34.296Z,86.00
2017-09-26T02:50:01.943Z,86.10
2017-09-26T02:52:29.648Z,86.40
2017-09-26T02:54:57.333Z,86.70
2017-09-26T02:57:25.084Z,86.90
2017-09-26T02:59:52.830Z,86.90
2017-09-26T03:02:20.576Z,87.00
2017-09-26T03:04:48.220Z,86.80
2017-09-26T03:07:15.935Z,86.70
2017-09-26T03:09:43.583Z,86.60
2017-09-26T03:12:11.242Z,86.00
2017-09-26T03:14:39.005Z,86.20
2017-09-26T03:17:06.655Z,86.00
2017-09-26T03:19:34.307Z,85.90
2017-09-26T03:22:02.010Z,85.20
2017-09-26T03:24:29.656Z,85.00
2017-09-26T03:26:57.331Z,85.30
2017-09-26T03:29:25.082Z,85.50
2017-09-26T03:31:52.776Z,85.60
2017-09-26T03:34:20.472Z,85.20
2017-09-26T03:36:48.226Z,85.60
2017-09-26T03:39:15.926Z,85.40
2017-09-26T03:41:43.612Z,85.50
2017-09-26T03:44:11.360Z,85.20
2017-09-26T03:46:39.051Z,85.20
2017-09-26T03:49:06.751Z,85.20
2017-09-26T03:51:34.444Z,85.00
2017-09-26T03:54:02.087Z,85.50
2017-09-26T03:56:29.787Z,85.70
2017-09-26T03:58:57.560Z,86.20
2017-09-26T04:01:25.212Z,86.00
2017-09-26T04:03:53.323Z,86.40
2017-09-26T04:06:21.189Z,86.40
2017-09-26T04:08:48.894Z,86.60
2017-09-26T04:11:16.581Z,86.30
2017-09-26T04:13:44.388Z,86.20
2017-09-26T04:16:12.180Z,86.80
2017-09-26T04:18:39.874Z,87.00
2017-09-26T04:21:07.682Z,87.10
2017-09-26T04:23:35.346Z,87.10
2017-09-26T04:26:03.473Z,86.80
2017-09-26T04:28:31.222Z,86.80
2017-09-26T04:30:58.967Z,86.60
2017-09-26T04:33:26.642Z,86.30
2017-09-26T04:35:54.772Z,86.30
2017-09-26T04:38:22.527Z,86.30
2017-09-26T04:40:50.267Z,85.90
2017-09-26T04:43:18.116Z,86.00
2017-09-26T04:45:45.806Z,86.40
2017-09-26T04:48:13.479Z,86.90
2017-09-26T04:50:41.255Z,87.00
2017-09-26T04:53:09.002Z,87.10
2017-09-26T04:55:36.647Z,86.90
2017-09-26T04:58:04.351Z,87.00
2017-09-26T05:00:32.043Z,86.60
2017-09-26T05:02:59.695Z,86.70
2017-09-26T05:05:27.535Z,86.60
2017-09-26T05:07:55.286Z,86.60
2017-09-26T05:10:22.982Z,86.70
2017-09-26T05:12:50.839Z,86.70
2017-09-26T05:15:18.546Z,86.80
2017-09-26T05:17:46.682Z,86.70
2017-09-26T05:20:14.430Z,86.70
2017-09-26T05:22:42.175Z,86.60
2017-09-26T05:25:09.923Z,86.80
2017-09-26T05:27:37.775Z,86.60
2017-09-26T05:30:05.520Z,86.60
2017-09-26T05:32:33.267Z,86.70
2017-09-26T05:35:01.000Z,86.60
2017-09-26T05:37:28.760Z,86.40
2017-09-26T05:39:56.407Z,86.20
2017-09-26T05:42:24.120Z,86.00
2017-09-26T05:44:51.801Z,85.90
2017-09-26T05:47:19.558Z,86.10
2017-09-26T05:49:47.294Z,86.00
2017-09-26T05:52:15.042Z,86.20
2017-09-26T05:54:42.788Z,86.30
2017-09-26T05:57:10.503Z,86.00
2017-09-26T05:59:38.159Z,86.50
2017-09-26T06:02:05.825Z,86.70
2017-09-26T06:04:33.618Z,87.10
2017-09-26T06:07:01.319Z,87.20
2017-09-26T06:09:28.971Z,87.50
2017-09-26T06:11:56.713Z,87.00
2017-09-26T06:14:24.674Z,86.90
2017-09-26T06:16:52.344Z,87.00
2017-09-26T06:19:20.571Z,86.40
2017-09-26T06:21:48.215Z,86.40
2017-09-26T06:24:15.965Z,86.40
2017-09-26T06:26:43.715Z,86.20
2017-09-26T06:29:11.563Z,86.40
2017-09-26T06:31:39.716Z,86.20
2017-09-26T06:34:07.555Z,86.20
2017-09-26T06:36:35.199Z,86.40
2017-09-26T06:39:02.958Z,86.30
2017-09-26T06:41:30.806Z,86.20
2017-09-26T06:43:58.558Z,86.80
2017-09-26T06:46:26.300Z,86.50
2017-09-26T06:48:54.107Z,86.10
2017-09-26T06:51:21.761Z,85.70
2017-09-26T06:53:49.423Z,85.00
2017-09-26T06:56:17.118Z,83.40
2017-09-26T06:58:45.206Z,81.10
2017-09-26T07:01:12.890Z,81.10
2017-09-26T07:03:40.595Z,80.00
2017-09-26T07:06:08.286Z,79.90
2017-09-26T07:08:35.943Z,80.00
2017-09-26T07:11:04.069Z,80.30
2017-09-26T07:13:31.728Z,80.30
2017-09-26T07:15:59.399Z,80.90
2017-09-26T07:18:27.223Z,81.10
2017-09-26T07:20:55.075Z,80.70
2017-09-26T07:23:22.722Z,80.60
2017-09-26T07:25:50.547Z,81.00
2017-09-26T07:28:18.223Z,81.50
2017-09-26T07:30:46.287Z,81.30
2017-09-26T07:33:13.986Z,81.30
2017-09-26T07:35:41.639Z,81.40
2017-09-26T07:38:09.305Z,80.80
2017-09-26T07:40:37.090Z,80.00
2017-09-26T07:43:05.131Z,77.90
2017-09-26T07:45:33.223Z,77.30
2017-09-26T07:48:01.011Z,77.30
2017-09-26T07:50:28.699Z,76.80
2017-09-26T07:52:56.811Z,75.00
2017-09-26T07:55:24.599Z,75.00
2017-09-26T07:57:52.719Z,76.10
2017-09-26T08:00:20.602Z,76.10
2017-09-26T08:02:48.698Z,75.80
2017-09-26T08:05:16.738Z,75.80
2017-09-26T08:07:44.695Z,75.30
2017-09-26T08:10:12.479Z,75.50
2017-09-26T08:12:40.159Z,75.30
2017-09-26T08:15:08.194Z,73.80
2017-09-26T08:17:35.991Z,73.80
2017-09-26T08:20:03.630Z,73.90
2017-09-26T08:22:31.421Z,74.00
2017-09-26T08:24:59.679Z,73.30
2017-09-26T08:27:27.426Z,73.20
2017-09-26T08:29:55.176Z,72.90
2017-09-26T08:32:22.923Z,72.80
2017-09-26T08:34:50.571Z,72.40
2017-09-26T08:37:18.219Z,71.50
2017-09-26T08:39:46.062Z,71.70
2017-09-26T08:42:13.766Z,72.10
2017-09-26T08:44:41.438Z,73.40
2017-09-26T08:47:09.151Z,74.50
2017-09-26T08:49:36.847Z,75.00
2017-09-26T08:52:04.492Z,74.70
2017-09-26T08:54:32.530Z,75.30
2017-09-26T08:57:00.167Z,75.70
2017-09-26T08:59:27.809Z,76.10
2017-09-26T09:01:55.583Z,75.90
2017-09-26T09:04:23.239Z,76.00
2017-09-26T09:06:50.976Z,76.50
2017-09-26T09:09:18.687Z,76.60
2017-09-26T09:11:46.470Z,76.50
2017-09-26T09:14:14.221Z,76.50
2017-09-26T09:16:41.966Z,76.20
2017-09-26T09:19:09.608Z,75.90
2017-09-26T09:21:37.356Z,75.90
2017-09-26T09:24:05.105Z,76.10
2017-09-26T09:26:32.807Z,75.50
2017-09-26T09:29:00.497Z,74.70
2017-09-26T09:31:28.203Z,75.00
2017-09-26T09:33:55.890Z,75.30
2017-09-26T09:36:23.639Z,75.90
2017-09-26T09:38:51.418Z,74.70
2017-09-26T09:41:19.543Z,74.00
2017-09-26T09:43:47.196Z,74.00
2017-09-26T09:46:14.896Z,73.40
2017-09-26T09:48:42.578Z,70.90
2017-09-26T09:51:10.279Z,70.80
2017-09-26T09:53:38.168Z,70.30
2017-09-26T09:56:05.922Z,69.00
2017-09-26T09:58:33.669Z,69.00
2017-09-26T10:01:01.453Z,68.70
2017-09-26T10:03:29.503Z,69.50
2017-09-26T10:05:57.547Z,69.30
2017-09-26T10:08:25.330Z,69.40
2017-09-26T10:10:52.979Z,67.70
2017-09-26T10:13:20.633Z,68.90
2017-09-26T10:15:48.331Z,69.80
2017-09-26T10:18:16.379Z,69.30
2017-09-26T10:20:44.261Z,69.40
2017-09-26T10:23:12.065Z,68.50
2017-09-26T10:25:39.813Z,69.30
2017-09-26T10:28:07.559Z,68.90
2017-09-26T10:30:35.279Z,68.90
2017-09-26T10:33:02.951Z,69.00
2017-09-26T10:35:30.611Z,68.10
2017-09-26T10:37:58.311Z,67.80
2017-09-26T10:40:25.993Z,68.00
2017-09-26T10:42:53.739Z,67.90
2017-09-26T10:45:21.589Z,67.20
2017-09-26T10:47:49.246Z,68.10
2017-09-26T10:50:16.904Z,67.50
2017-09-26T10:52:45.034Z,66.90
2017-09-26T10:55:12.781Z,66.90
2017-09-26T10:57:40.448Z,67.00
2017-09-26T11:00:08.595Z,66.60
2017-09-26T11:02:36.230Z,66.60
2017-09-26T11:05:03.975Z,66.30
2017-09-26T11:07:31.723Z,66.10
2017-09-26T11:09:59.470Z,65.80
2017-09-26T11:12:27.217Z,65.10
2017-09-26T11:14:54.939Z,65.70
2017-09-26T11:17:22.612Z,64.60
2017-09-26T11:19:50.358Z,65.70
2017-09-26T11:22:18.107Z,64.90
2017-09-26T11:24:45.759Z,65.10
2017-09-26T11:27:13.501Z,64.70
2017-09-26T11:29:41.245Z,64.50
2017-09-26T11:32:08.889Z,65.20
2017-09-26T11:34:36.637Z,66.00
2017-09-26T11:37:04.426Z,65.40
2017-09-26T11:39:32.540Z,64.60
2017-09-26T11:42:00.287Z,64.60
2017-09-26T11:44:28.000Z,64.30
2017-09-26T11:46:55.640Z,64.80
2017-09-26T11:49:23.333Z,64.80
2017-09-26T11:51:51.029Z,65.20
2017-09-26T11:54:18.683Z,65.20
2017-09-26T11:56:46.364Z,64.80
2017-09-26T11:59:14.213Z,64.50
2017-09-26T12:01:41.960Z,65.50
2017-09-26T12:04:09.630Z,66.20
2017-09-26T12:06:37.865Z,66.00
2017-09-26T12:09:05.612Z,66.00
2017-09-26T12:11:33.359Z,65.30
2017-09-26T12:14:07.045Z,63.60
2017-09-26T12:16:34.792Z,63.80
2017-09-26T12:19:02.539Z,63.30
2017-09-26T12:21:30.285Z,62.70
2017-09-26T12:23:58.034Z,62.50
2017-09-26T12:26:25.681Z,61.90
2017-09-26T12:28:53.429Z,62.90
2017-09-26T12:31:21.176Z,63.30
2017-09-26T12:33:48.922Z,62.50
2017-09-26T12:36:16.669Z,62.80
2017-09-26T12:38:44.312Z,62.00
2017-09-26T12:41:12.062Z,61.60
2017-09-26T12:43:39.812Z,63.00
2017-09-26T12:46:07.455Z,62.80
2017-09-26T12:48:35.201Z,61.10
2017-09-26T12:51:03.006Z,62.00
2017-09-26T12:53:30.696Z,61.50
2017-09-26T12:55:58.450Z,61.40
2017-09-26T12:58:26.192Z,62.30
2017-09-26T13:00:53.946Z,62.30
2017-09-26T13:03:21.671Z,62.10
2017-09-26T13:05:49.434Z,63.30
2017-09-26T13:08:17.183Z,62.10
2017-09-26T13:10:44.836Z,63.30
2017-09-26T13:13:12.573Z,62.80
2017-09-26T13:15:40.321Z,63.10
2017-09-26T13:18:08.068Z,63.80
2017-09-26T13:20:35.814Z,64.40
2017-09-26T13:23:03.563Z,64.90
2017-09-26T13:25:31.310Z,64.80
2017-09-26T13:27:59.057Z,64.60
2017-09-26T13:30:26.803Z,64.40
2017-09-26T13:32:54.553Z,65.00
2017-09-26T13:35:22.404Z,65.60
2017-09-26T13:37:50.150Z,66.20
2017-09-26T13:40:17.898Z,66.00
2017-09-26T13:42:45.644Z,65.50
2017-09-26T13:45:13.392Z,65.50
2017-09-26T13:47:41.036Z,64.30
2017-09-26T13:50:08.785Z,64.70
2017-09-26T13:52:36.531Z,65.70
2017-09-26T13:55:04.278Z,64.70
2017-09-26T13:57:32.025Z,65.60
2017-09-26T13:59:59.773Z,66.40
2017-09-26T14:02:27.520Z,67.00
2017-09-26T14:04:55.270Z,67.60
2017-09-26T14:07:22.923Z,67.70
2017-09-26T14:09:50.661Z,68.60
2017-09-26T14:12:18.408Z,68.10
2017-09-26T14:14:46.156Z,67.90
2017-09-26T14:17:13.903Z,67.50
2017-09-26T14:19:41.651Z,67.50
2017-09-26T14:22:09.397Z,67.30
2017-09-26T14:24:37.144Z,68.20
2017-09-26T14:27:04.892Z,67.50
2017-09-26T14:29:32.639Z,67.50
2017-09-26T14:32:00.385Z,67.20
2017-09-26T14:34:28.082Z,67.60
2017-09-26T14:36:55.781Z,67.00
2017-09-26T14:39:23.529Z,67.50
2017-09-26T14:41:51.322Z,67.10
2017-09-26T14:44:19.022Z,65.80
2017-09-26T14:46:46.679Z,64.80
2017-09-26T14:49:14.502Z,65.20
2017-09-26T14:51:42.162Z,66.00
2017-09-26T14:54:09.816Z,66.00
2017-09-26T14:56:37.622Z,66.50
2017-09-26T14:59:05.301Z,67.10
2017-09-26T15:01:33.048Z,66.20
2017-09-26T15:04:00.898Z,66.70
2017-09-26T15:06:28.644Z,66.70
2017-09-26T15:08:56.391Z,66.70
2017-09-26T15:11:24.142Z,65.30
2017-09-26T15:13:51.833Z,64.60
2017-09-26T15:16:19.541Z,64.10
2017-09-26T15:18:47.383Z,64.30
2017-09-26T15:21:15.130Z,64.30
2017-09-26T15:23:42.878Z,64.40
2017-09-26T15:26:10.595Z,64.30
2017-09-26T15:28:38.247Z,64.50
2017-09-26T15:31:05.890Z,64.70
2017-09-26T15:33:33.595Z,64.40
2017-09-26T15:36:01.716Z,65.30
2017-09-26T15:38:29.463Z,65.30
2017-09-26T15:40:57.625Z,65.80
2017-09-26T15:43:25.370Z,65.30
2017-09-26T15:45:53.118Z,65.90
2017-09-26T15:48:21.274Z,65.30
2017-09-26T15:50:49.021Z,66.30
2017-09-26T15:53:16.664Z,66.40
2017-09-26T15:55:44.376Z,66.10
2017-09-26T15:58:12.057Z,67.10
2017-09-26T16:00:39.720Z,67.40
2017-09-26T16:03:07.449Z,67.40
2017-09-26T16:05:35.197Z,67.40
2017-09-26T16:08:02.945Z,67.60
2017-09-26T16:10:30.792Z,68.00
2017-09-26T16:12:58.539Z,68.90
2017-09-26T16:15:26.290Z,69.20
2017-09-26T16:17:54.023Z,69.70
2017-09-26T16:20:21.670Z,69.90
2017-09-26T16:22:49.349Z,70.10
2017-09-26T16:25:18.444Z,70.30
2017-09-26T16:27:46.124Z,70.90
2017-09-26T16:30:13.783Z,71.00
2017-09-26T16:32:41.494Z,70.60
2017-09-26T16:35:09.148Z,71.20
2017-09-26T16:37:36.836Z,71.60
2017-09-26T16:40:04.582Z,71.90
2017-09-26T16:42:32.251Z,71.70
2017-09-26T16:45:00.382Z,72.60
2017-09-26T16:47:28.130Z,72.60
2017-09-26T16:49:55.791Z,73.60
2017-09-26T16:52:23.525Z,73.50
2017-09-26T16:54:51.239Z,73.30
2017-09-26T16:57:18.917Z,74.10
2017-09-26T16:59:46.572Z,74.20
2017-09-26T17:02:14.291Z,74.60
2017-09-26T17:04:41.953Z,74.40
2017-09-26T17:07:09.701Z,74.80
2017-09-26T17:09:37.506Z,74.80
2017-09-26T17:12:05.151Z,75.30
2017-09-26T17:14:32.816Z,75.40
2017-09-26T17:17:00.584Z,75.80
2017-09-26T17:19:28.334Z,75.90
2017-09-26T17:21:55.991Z,76.00
2017-09-26T17:24:23.729Z,76.20
2017-09-26T17:26:51.476Z,76.10
2017-09-26T17:29:19.224Z,76.20
2017-09-26T17:31:46.947Z,76.60
2017-09-26T17:34:14.614Z,76.60
2017-09-26T17:36:42.362Z,76.90
2017-09-26T17:39:10.056Z,77.00
2017-09-26T17:41:37.755Z,77.20
2017-09-26T17:44:05.501Z,77.20
2017-09-26T17:46:33.248Z,77.60
2017-09-26T17:49:00.996Z,77.70
2017-09-26T17:51:28.744Z,77.80
2017-09-26T17:53:56.444Z,78.10
2017-09-26T17:56:24.138Z,78.00
2017-09-26T17:58:51.885Z,77.90
2017-09-26T18:01:19.604Z,77.80
2017-09-26T18:03:47.380Z,78.20
2017-09-26T18:06:15.030Z,78.70
2017-09-26T18:08:42.772Z,78.80
2017-09-26T18:11:10.424Z,78.80
2017-09-26T18:13:38.072Z,79.30
2017-09-26T18:16:06.250Z,78.80
2017-09-26T18:18:33.899Z,79.10
2017-09-26T18:21:01.951Z,79.50
2017-09-26T18:23:30.044Z,79.60
2017-09-26T18:25:57.821Z,79.70
2017-09-26T18:28:25.572Z,80.10
2017-09-26T18:30:53.421Z,80.00
2017-09-26T18:33:21.168Z,79.70
2017-09-26T18:35:48.915Z,79.30
2017-09-26T18:38:16.723Z,79.20
2017-09-26T18:40:44.410Z,79.30
2017-09-26T18:43:12.102Z,79.60
2017-09-26T18:45:39.904Z,79.50
2017-09-26T18:48:07.652Z,79.70
2017-09-26T18:50:35.304Z,79.70
2017-09-26T18:53:03.042Z,79.80
2017-09-26T18:55:30.791Z,79.70
2017-09-26T18:57:58.439Z,79.60
2017-09-26T19:00:26.158Z,79.70
2017-09-26T19:02:53.932Z,80.00
2017-09-26T19:05:21.602Z,80.00
2017-09-26T19:07:49.734Z,80.20
2017-09-26T19:10:17.481Z,80.20
2017-09-26T19:12:45.128Z,80.50
2017-09-26T19:15:12.974Z,80.90
2017-09-26T19:17:41.647Z,80.80
2017-09-26T19:20:09.391Z,80.80
2017-09-26T19:22:37.240Z,80.90
2017-09-26T19:25:04.888Z,80.80
2017-09-26T19:27:32.633Z,80.70
2017-09-26T19:30:00.484Z,80.80
2017-09-26T19:32:28.163Z,80.90
2017-09-26T19:34:56.208Z,80.80
2017-09-26T19:37:24.327Z,80.90
2017-09-26T19:39:52.032Z,80.90
2017-09-26T19:42:19.836Z,80.60
2017-09-26T19:44:47.577Z,80.50
2017-09-26T19:47:15.330Z,80.50
2017-09-26T19:49:43.077Z,80.30
2017-09-26T19:52:10.925Z,79.80
2017-09-26T19:54:38.591Z,79.90
2017-09-26T19:57:06.641Z,80.80
2017-09-26T19:59:34.987Z,80.80
2017-09-26T20:02:02.837Z,81.30
2017-09-26T20:04:30.589Z,81.70
2017-09-26T20:06:58.444Z,82.40
2017-09-26T20:09:26.286Z,82.80
2017-09-26T20:11:54.020Z,82.80
2017-09-26T20:14:24.870Z,82.90
2017-09-26T20:16:52.599Z,82.80
2017-09-26T20:19:20.251Z,82.80
2017-09-26T20:21:47.956Z,83.00
2017-09-26T20:24:15.636Z,82.70
2017-09-26T20:26:43.382Z,82.50
2017-09-26T20:29:11.088Z,82.60
2017-09-26T20:31:38.750Z,82.90
2017-09-26T20:34:06.418Z,82.80
2017-09-26T20:36:34.166Z,82.00
2017-09-26T20:39:01.913Z,81.90
2017-09-26T20:41:29.661Z,82.30
2017-09-26T20:43:57.817Z,82.20
2017-09-26T20:46:25.468Z,82.70
2017-09-26T20:48:53.213Z,82.00
2017-09-26T20:51:20.940Z,80.60
2017-09-26T20:53:48.707Z,80.60
2017-09-26T20:56:16.423Z,81.00
2017-09-26T20:58:44.175Z,81.80
2017-09-26T21:01:11.820Z,81.40
2017-09-26T21:03:39.592Z,81.30
2017-09-26T21:06:07.392Z,81.20
2017-09-26T21:08:35.088Z,81.60
2017-09-26T21:11:02.835Z,81.80
2017-09-26T21:13:30.683Z,82.00
2017-09-26T21:15:58.430Z,82.00
2017-09-26T21:18:26.179Z,82.40
2017-09-26T21:20:53.928Z,82.20
2017-09-26T21:23:21.675Z,82.30
2017-09-26T21:25:49.421Z,82.80
2017-09-26T21:28:17.222Z,82.30
2017-09-26T21:30:44.872Z,82.40
2017-09-26T21:33:12.572Z,82.40
2017-09-26T21:35:40.299Z,82.50
2017-09-26T21:38:07.951Z,83.10
2017-09-26T21:40:35.604Z,83.30
2017-09-26T21:43:03.447Z,82.90
2017-09-26T21:45:31.196Z,82.80
2017-09-26T21:47:58.849Z,83.00
2017-09-26T21:50:26.688Z,82.80
2017-09-26T21:52:54.339Z,82.60
2017-09-26T21:55:21.995Z,79.90
2017-09-26T21:57:49.727Z,81.70
2017-09-26T22:00:17.381Z,82.40
2017-09-26T22:02:45.036Z,83.30
2017-09-26T22:05:12.735Z,82.70
2017-09-26T22:07:40.388Z,83.00
2017-09-26T22:10:08.043Z,83.40
2017-09-26T22:12:36.107Z,83.60
2017-09-26T22:15:03.856Z,83.40
2017-09-26T22:17:31.503Z,83.40
2017-09-26T22:19:59.304Z,83.90
2017-09-26T22:22:26.959Z,84.40
2017-09-26T22:24:54.604Z,84.30
2017-09-26T22:27:22.419Z,83.80
2017-09-26T22:29:50.463Z,83.30
2017-09-26T22:32:18.111Z,83.30
2017-09-26T22:34:46.348Z,83.40
2017-09-26T22:37:14.097Z,83.40
2017-09-26T22:39:41.842Z,83.50
2017-09-26T22:42:09.588Z,83.60
2017-09-26T22:44:37.239Z,84.10
2017-09-26T22:47:04.938Z,84.10
2017-09-26T22:49:32.635Z,84.00
2017-09-26T22:52:00.279Z,83.70
2017-09-26T22:54:28.018Z,83.70
2017-09-26T22:56:55.830Z,83.60
2017-09-26T22:59:23.495Z,83.70
2017-09-26T23:01:51.143Z,84.10
2017-09-26T23:04:18.907Z,83.90
2017-09-26T23:06:46.554Z,83.80
2017-09-26T23:09:14.299Z,83.30
2017-09-26T23:11:41.998Z,83.30
2017-09-26T23:14:10.612Z,83.10
2017-09-26T23:16:38.257Z,83.00
2017-09-26T23:19:05.972Z,84.00
2017-09-26T23:21:33.627Z,84.40
2017-09-26T23:24:01.271Z,83.50
2017-09-26T23:26:28.972Z,83.60
2017-09-26T23:28:57.011Z,83.40
2017-09-26T23:31:24.744Z,83.40
2017-09-26T23:33:52.451Z,83.90
2017-09-26T23:36:20.135Z,83.60
2017-09-26T23:38:47.883Z,83.70
2017-09-26T23:41:15.587Z,83.60
2017-09-26T23:43:43.251Z,83.50
2017-09-26T23:46:10.894Z,82.80
2017-09-26T23:48:38.768Z,83.10
2017-09-26T23:51:06.516Z,83.70
2017-09-26T23:53:34.263Z,84.20
2017-09-26T23:56:02.008Z,83.60
2017-09-26T23:58:29.758Z,83.70
